sensor_id;sensor_type;location;lat;lon;timestamp;P1;P2;P0
68198;PMS7003;55021;51.554;17.044;2022-07-12T00:12:03;13.75;13.50;7.00
68198;PMS7003;55021;51.554;17.044;2022-07-12T00:27:05;13.75;12.00;6.00
68198;PMS7003;55021;51.554;17.044;2022-07-12T00:42:08;12.00;12.00;6.00
68198;PMS7003;55021;51.554;17.044;2022-07-12T00:57:10;12.75;11.75;5.50
68198;PMS7003;55021;51.554;17.044;2022-07-12T01:12:13;11.25;11.25;6.00
68198;PMS7003;55021;51.554;17.044;2022-07-12T01:27:16;12.00;12.00;6.75
68198;PMS7003;55021;51.554;17.044;2022-07-12T01:42:18;13.75;12.75;6.75
68198;PMS7003;55021;51.554;17.044;2022-07-12T01:57:21;12.00;12.00;6.00
68198;PMS7003;55021;51.554;17.044;2022-07-12T02:12:24;11.00;10.00;5.00
68198;PMS7003;55021;51.554;17.044;2022-07-12T02:27:26;12.25;12.25;6.50
68198;PMS7003;55021;51.554;17.044;2022-07-12T02:42:28;11.50;10.50;4.75
68198;PMS7003;55021;51.554;17.044;2022-07-12T02:57:31;16.25;12.50;6.00
68198;PMS7003;55021;51.554;17.044;2022-07-12T03:12:33;15.25;15.00;7.00
68198;PMS7003;55021;51.554;17.044;2022-07-12T03:27:36;14.75;11.50;7.50
68198;PMS7003;55021;51.554;17.044;2022-07-12T03:42:38;16.75;14.50;7.25
68198;PMS7003;55021;51.554;17.044;2022-07-12T03:57:41;13.25;11.75;6.75
68198;PMS7003;55021;51.554;17.044;2022-07-12T04:12:43;13.25;11.75;5.00
68198;PMS7003;55021;51.554;17.044;2022-07-12T04:27:45;7.00;7.00;3.00
68198;PMS7003;55021;51.554;17.044;2022-07-12T04:42:48;9.00;7.00;3.75
68198;PMS7003;55021;51.554;17.044;2022-07-12T04:57:50;8.75;7.00;4.00
68198;PMS7003;55021;51.554;17.044;2022-07-12T05:12:53;7.75;7.75;3.75
68198;PMS7003;55021;51.554;17.044;2022-07-12T05:27:55;7.75;7.75;3.00
68198;PMS7003;55021;51.554;17.044;2022-07-12T05:42:58;8.75;8.25;4.50
68198;PMS7003;55021;51.554;17.044;2022-07-12T05:58:00;9.75;9.25;4.75
68198;PMS7003;55021;51.554;17.044;2022-07-12T06:13:03;9.00;8.75;3.75
68198;PMS7003;55021;51.554;17.044;2022-07-12T06:28:05;7.25;6.25;2.25
68198;PMS7003;55021;51.554;17.044;2022-07-12T06:43:09;6.00;4.50;2.25
68198;PMS7003;55021;51.554;17.044;2022-07-12T06:58:12;8.00;7.00;2.75
68198;PMS7003;55021;51.554;17.044;2022-07-12T07:13:15;5.00;5.00;2.00
68198;PMS7003;55021;51.554;17.044;2022-07-12T07:28:17;5.75;5.00;1.00
68198;PMS7003;55021;51.554;17.044;2022-07-12T07:43:19;4.50;4.50;1.00
68198;PMS7003;55021;51.554;17.044;2022-07-12T07:58:22;4.50;4.50;0.50
68198;PMS7003;55021;51.554;17.044;2022-07-12T08:13:24;5.00;5.00;1.00
68198;PMS7003;55021;51.554;17.044;2022-07-12T08:28:26;4.25;4.25;1.00
68198;PMS7003;55021;51.554;17.044;2022-07-12T08:43:29;4.50;4.50;1.25
68198;PMS7003;55021;51.554;17.044;2022-07-12T08:58:31;4.00;4.00;1.00
68198;PMS7003;55021;51.554;17.044;2022-07-12T09:28:51;3.75;3.75;0.00
68198;PMS7003;55021;51.554;17.044;2022-07-12T09:43:54;4.00;4.00;0.00
68198;PMS7003;55021;51.554;17.044;2022-07-12T09:58:57;4.00;4.00;1.00
68198;PMS7003;55021;51.554;17.044;2022-07-12T10:14:03;3.75;3.00;0.00
68198;PMS7003;55021;51.554;17.044;2022-07-12T10:29:06;5.25;5.25;2.00
68198;PMS7003;55021;51.554;17.044;2022-07-12T10:44:09;4.00;4.00;1.00
68198;PMS7003;55021;51.554;17.044;2022-07-12T10:59:11;3.75;3.75;0.00
68198;PMS7003;55021;51.554;17.044;2022-07-12T11:14:19;4.00;4.00;0.00
68198;PMS7003;55021;51.554;17.044;2022-07-12T11:29:23;4.00;4.00;1.00
68198;PMS7003;55021;51.554;17.044;2022-07-12T11:44:31;4.00;4.00;1.00
68198;PMS7003;55021;51.554;17.044;2022-07-12T11:59:43;4.50;4.00;0.75
68198;PMS7003;55021;51.554;17.044;2022-07-12T12:14:45;3.75;3.75;1.00
68198;PMS7003;55021;51.554;17.044;2022-07-12T12:29:48;5.00;5.00;2.00
68198;PMS7003;55021;51.554;17.044;2022-07-12T12:44:50;3.25;3.00;0.00
68198;PMS7003;55021;51.554;17.044;2022-07-12T12:59:53;5.00;5.00;1.50
68198;PMS7003;55021;51.554;17.044;2022-07-12T13:14:55;4.50;4.50;0.75
68198;PMS7003;55021;51.554;17.044;2022-07-12T13:29:58;3.00;3.00;1.00
68198;PMS7003;55021;51.554;17.044;2022-07-12T13:45:00;5.00;5.00;2.00
68198;PMS7003;55021;51.554;17.044;2022-07-12T14:00:03;5.50;5.50;1.50
68198;PMS7003;55021;51.554;17.044;2022-07-12T14:15:06;3.75;3.75;0.50
68198;PMS7003;55021;51.554;17.044;2022-07-12T14:30:11;4.00;4.00;1.00
68198;PMS7003;55021;51.554;17.044;2022-07-12T14:45:15;4.75;4.75;1.00
68198;PMS7003;55021;51.554;17.044;2022-07-12T15:00:17;4.75;4.75;1.00
68198;PMS7003;55021;51.554;17.044;2022-07-12T15:15:20;7.00;5.25;2.00
68198;PMS7003;55021;51.554;17.044;2022-07-12T15:30:22;5.25;4.75;1.00
68198;PMS7003;55021;51.554;17.044;2022-07-12T15:45:24;7.25;6.00;2.25
68198;PMS7003;55021;51.554;17.044;2022-07-12T16:00:27;4.00;4.00;1.00
68198;PMS7003;55021;51.554;17.044;2022-07-12T16:15:29;5.00;5.00;1.00
68198;PMS7003;55021;51.554;17.044;2022-07-12T16:30:32;9.50;7.75;2.75
68198;PMS7003;55021;51.554;17.044;2022-07-12T16:45:34;13.00;10.75;4.25
68198;PMS7003;55021;51.554;17.044;2022-07-12T17:00:37;4.00;4.00;1.00
68198;PMS7003;55021;51.554;17.044;2022-07-12T17:15:39;3.00;3.00;0.00
68198;PMS7003;55021;51.554;17.044;2022-07-12T17:30:41;4.00;4.00;1.00
68198;PMS7003;55021;51.554;17.044;2022-07-12T17:45:44;3.00;3.00;0.00
68198;PMS7003;55021;51.554;17.044;2022-07-12T18:00:47;3.75;3.75;0.75
68198;PMS7003;55021;51.554;17.044;2022-07-12T18:15:49;3.75;3.00;0.00
68198;PMS7003;55021;51.554;17.044;2022-07-12T18:30:52;3.00;3.00;0.00
68198;PMS7003;55021;51.554;17.044;2022-07-12T18:45:55;4.00;3.00;0.00
68198;PMS7003;55021;51.554;17.044;2022-07-12T19:00:57;8.75;7.00;1.00
68198;PMS7003;55021;51.554;17.044;2022-07-12T19:16:00;4.00;4.00;0.00
68198;PMS7003;55021;51.554;17.044;2022-07-12T19:31:02;5.00;4.00;1.00
68198;PMS7003;55021;51.554;17.044;2022-07-12T19:46:05;5.00;3.50;0.00
68198;PMS7003;55021;51.554;17.044;2022-07-12T20:01:07;4.00;4.00;1.00
68198;PMS7003;55021;51.554;17.044;2022-07-12T20:16:10;4.50;4.50;1.00
68198;PMS7003;55021;51.554;17.044;2022-07-12T20:31:12;6.50;5.75;1.75
68198;PMS7003;55021;51.554;17.044;2022-07-12T20:46:14;5.00;5.00;1.25
68198;PMS7003;55021;51.554;17.044;2022-07-12T21:01:17;7.00;6.00;2.00
68198;PMS7003;55021;51.554;17.044;2022-07-12T21:16:20;7.50;7.50;2.50
68198;PMS7003;55021;51.554;17.044;2022-07-12T21:31:22;7.00;6.50;2.50
68198;PMS7003;55021;51.554;17.044;2022-07-12T21:46:25;8.25;8.25;4.25
68198;PMS7003;55021;51.554;17.044;2022-07-12T22:01:28;8.00;8.00;4.00
68198;PMS7003;55021;51.554;17.044;2022-07-12T22:16:30;7.25;7.25;3.00
68198;PMS7003;55021;51.554;17.044;2022-07-12T22:31:32;6.00;6.00;3.00
68198;PMS7003;55021;51.554;17.044;2022-07-12T22:46:35;7.25;6.75;2.75
68198;PMS7003;55021;51.554;17.044;2022-07-12T23:01:37;5.75;5.75;2.25
68198;PMS7003;55021;51.554;17.044;2022-07-12T23:16:40;6.75;6.75;3.75
68198;PMS7003;55021;51.554;17.044;2022-07-12T23:31:42;7.25;7.25;3.25
68198;PMS7003;55021;51.554;17.044;2022-07-12T23:46:44;6.50;6.50;3.25
